createdAt,value
2023-04-16T00:00:22.551Z,41.82
2023-04-16T00:02:49.093Z,41.43
2023-04-16T00:05:15.794Z,41.72
2023-04-16T00:07:43.626Z,41.35
2023-04-16T00:10:10.474Z,41.69
2023-04-16T00:12:36.986Z,41.51
2023-04-16T00:15:03.927Z,41.62
2023-04-16T00:17:30.423Z,41.78
2023-04-16T00:19:56.932Z,41.48
2023-04-16T00:22:23.405Z,41.63
2023-04-16T00:24:51.308Z,41.48
2023-04-16T00:27:19.046Z,41.53
2023-04-16T00:29:45.678Z,41.72
2023-04-16T00:32:12.153Z,41.66
2023-04-16T00:34:38.666Z,41.59
2023-04-16T00:37:05.308Z,41.48
2023-04-16T00:39:31.761Z,41.50
2023-04-16T00:41:59.537Z,41.37
2023-04-16T00:44:26.032Z,41.58
2023-04-16T00:46:52.608Z,41.20
2023-04-16T00:49:19.418Z,41.52
2023-04-16T00:51:46.213Z,41.26
2023-04-16T00:54:12.733Z,41.37
2023-04-16T00:56:39.946Z,41.53
2023-04-16T00:59:08.572Z,41.26
2023-04-16T01:01:35.448Z,41.36
2023-04-16T01:04:02.195Z,41.32
2023-04-16T01:06:28.861Z,41.20
2023-04-16T01:08:55.446Z,41.41
2023-04-16T01:11:21.934Z,41.49
2023-04-16T01:13:48.362Z,41.01
2023-04-16T01:16:16.244Z,41.17
2023-04-16T01:18:42.777Z,41.26
2023-04-16T01:21:10.573Z,41.38
2023-04-16T01:23:37.118Z,41.26
2023-04-16T01:26:03.685Z,41.21
2023-04-16T01:28:30.168Z,41.15
2023-04-16T01:30:56.685Z,41.28
2023-04-16T01:33:23.343Z,41.16
2023-04-16T01:35:49.853Z,41.15
2023-04-16T01:38:17.607Z,41.23
2023-04-16T01:40:44.194Z,41.15
2023-04-16T01:43:10.677Z,41.06
2023-04-16T01:45:37.229Z,41.40
2023-04-16T01:48:04.307Z,41.28
2023-04-16T01:50:31.101Z,41.03
2023-04-16T01:52:57.613Z,41.41
2023-04-16T01:55:25.566Z,41.16
2023-04-16T01:57:51.999Z,41.02
2023-04-16T02:00:18.570Z,41.42
2023-04-16T02:02:45.448Z,41.20
2023-04-16T02:05:12.133Z,41.10
2023-04-16T02:07:38.650Z,41.36
2023-04-16T02:10:05.744Z,41.23
2023-04-16T02:12:33.547Z,41.25
2023-04-16T02:15:00.167Z,41.24
2023-04-16T02:17:26.728Z,41.11
2023-04-16T02:19:53.197Z,41.25
2023-04-16T02:22:19.634Z,41.13
2023-04-16T02:24:46.059Z,41.24
2023-04-16T02:27:12.561Z,41.30
2023-04-16T02:29:40.353Z,41.14
2023-04-16T02:32:06.811Z,40.97
2023-04-16T02:34:33.427Z,41.28
2023-04-16T02:37:00.028Z,41.23
2023-04-16T02:39:26.600Z,41.27
2023-04-16T02:41:53.157Z,41.18
2023-04-16T02:44:19.731Z,41.15
2023-04-16T02:46:47.537Z,41.04
2023-04-16T02:49:14.082Z,41.30
2023-04-16T02:51:40.548Z,41.24
2023-04-16T02:54:07.046Z,41.10
2023-04-16T02:56:33.486Z,41.45
2023-04-16T02:58:59.964Z,40.92
2023-04-16T03:01:26.525Z,41.06
2023-04-16T03:03:54.327Z,41.11
2023-04-16T03:06:20.776Z,41.29
2023-04-16T03:08:47.491Z,41.21
2023-04-16T03:11:13.936Z,41.07
2023-04-16T03:13:40.484Z,41.16
2023-04-16T03:16:07.664Z,41.17
2023-04-16T03:18:34.172Z,41.26
2023-04-16T03:21:02.180Z,41.38
2023-04-16T03:23:28.772Z,41.24
2023-04-16T03:25:55.209Z,41.21
2023-04-16T03:28:21.701Z,41.44
2023-04-16T03:30:51.506Z,41.19
2023-04-16T03:33:18.356Z,41.07
2023-04-16T03:35:44.859Z,41.21
2023-04-16T03:38:12.597Z,41.11
2023-04-16T03:40:39.454Z,41.17
2023-04-16T03:43:05.938Z,41.14
2023-04-16T03:45:32.385Z,41.12
2023-04-16T03:47:58.846Z,41.06
2023-04-16T03:50:25.351Z,41.19
2023-04-16T03:52:51.822Z,41.27
2023-04-16T03:55:19.692Z,41.14
2023-04-16T03:57:46.118Z,41.24
2023-04-16T04:00:12.748Z,41.22
2023-04-16T04:02:39.373Z,41.05
2023-04-16T04:05:06.304Z,41.04
2023-04-16T04:07:32.889Z,41.28
2023-04-16T04:09:59.486Z,41.29
2023-04-16T04:12:27.391Z,40.94
2023-04-16T04:14:53.853Z,41.06
2023-04-16T04:17:20.435Z,40.98
2023-04-16T04:19:58.091Z,41.40
2023-04-16T04:22:27.246Z,41.16
2023-04-16T04:24:53.741Z,41.14
2023-04-16T04:27:20.256Z,41.08
2023-04-16T04:29:47.967Z,40.96
2023-04-16T04:32:14.438Z,41.26
2023-04-16T04:34:40.960Z,40.91
2023-04-16T04:37:07.366Z,41.09
2023-04-16T04:39:33.773Z,41.12
2023-04-16T04:42:00.214Z,41.20
2023-04-16T04:44:26.780Z,41.08
2023-04-16T04:46:54.566Z,41.37
2023-04-16T04:49:21.029Z,41.07
2023-04-16T04:51:48.026Z,41.28
2023-04-16T04:54:14.477Z,41.03
2023-04-16T04:56:40.978Z,41.29
2023-04-16T04:59:07.739Z,41.00
2023-04-16T05:01:34.537Z,40.97
2023-04-16T05:04:02.538Z,40.89
2023-04-16T05:06:29.683Z,40.91
2023-04-16T05:08:56.175Z,41.29
2023-04-16T05:11:22.742Z,40.99
2023-04-16T05:13:49.201Z,41.00
2023-04-16T05:16:15.825Z,40.99
2023-04-16T05:18:42.291Z,41.20
2023-04-16T05:21:10.051Z,41.16
2023-04-16T05:23:36.542Z,41.01
2023-04-16T05:26:03.244Z,41.10
2023-04-16T05:28:30.437Z,41.24
2023-04-16T05:30:57.072Z,41.09
2023-04-16T05:33:23.578Z,41.27
2023-04-16T05:35:50.066Z,40.91
2023-04-16T05:38:17.848Z,40.98
2023-04-16T05:40:44.280Z,40.89
2023-04-16T05:43:10.748Z,41.01
2023-04-16T05:45:37.152Z,41.31
2023-04-16T05:48:03.714Z,40.97
2023-04-16T05:50:30.176Z,40.96
2023-04-16T05:52:56.632Z,41.25
2023-04-16T05:55:24.403Z,41.09
2023-04-16T05:57:50.911Z,40.88
2023-04-16T06:00:17.636Z,41.16
2023-04-16T06:02:44.425Z,40.99
2023-04-16T06:05:11.066Z,41.06
2023-04-16T06:07:37.563Z,41.18
2023-04-16T06:10:04.419Z,40.96
2023-04-16T06:12:32.184Z,41.07
2023-04-16T06:14:58.625Z,41.11
2023-04-16T06:17:25.230Z,40.87
2023-04-16T06:19:51.849Z,41.03
2023-04-16T06:22:18.453Z,40.93
2023-04-16T06:24:44.997Z,40.95
2023-04-16T06:27:11.502Z,41.27
2023-04-16T06:29:41.558Z,41.36
2023-04-16T06:32:08.726Z,41.08
2023-04-16T06:34:35.615Z,41.03
2023-04-16T06:37:02.108Z,41.11
2023-04-16T06:39:28.549Z,41.41
2023-04-16T06:41:55.450Z,41.30
2023-04-16T06:44:21.880Z,41.23
2023-04-16T06:46:50.255Z,41.17
2023-04-16T06:49:16.842Z,41.34
2023-04-16T06:51:43.422Z,41.24
2023-04-16T06:54:09.861Z,40.98
2023-04-16T06:56:36.326Z,41.36
2023-04-16T06:59:02.897Z,41.51
2023-04-16T07:01:29.514Z,41.22
2023-04-16T07:03:57.524Z,41.64
2023-04-16T07:06:24.308Z,41.36
2023-04-16T07:08:50.723Z,41.40
2023-04-16T07:11:18.103Z,41.37
2023-04-16T07:13:44.682Z,41.16
2023-04-16T07:16:11.125Z,41.59
2023-04-16T07:18:37.677Z,41.61
2023-04-16T07:21:05.533Z,41.29
2023-04-16T07:23:32.306Z,41.45
2023-04-16T07:25:58.743Z,41.30
2023-04-16T07:28:25.257Z,41.61
2023-04-16T07:30:51.787Z,41.39
2023-04-16T07:33:18.218Z,41.51
2023-04-16T07:35:44.694Z,41.46
2023-04-16T07:38:12.657Z,41.48
2023-04-16T07:40:39.161Z,41.63
2023-04-16T07:43:05.605Z,41.54
2023-04-16T07:45:32.112Z,41.42
2023-04-16T07:47:58.637Z,41.78
2023-04-16T07:50:25.218Z,41.53
2023-04-16T07:52:51.672Z,41.57
2023-04-16T07:55:19.628Z,41.88
2023-04-16T07:57:46.077Z,41.64
2023-04-16T08:00:12.917Z,41.62
2023-04-16T08:02:39.809Z,41.81
2023-04-16T08:05:07.306Z,41.88
2023-04-16T08:07:34.842Z,41.93
2023-04-16T08:10:01.817Z,41.93
2023-04-16T08:12:29.962Z,41.78
2023-04-16T08:14:56.435Z,41.98
2023-04-16T08:17:22.957Z,42.01
2023-04-16T08:19:49.436Z,41.98
2023-04-16T08:22:16.619Z,42.08
2023-04-16T08:24:43.175Z,42.11
2023-04-16T08:27:18.621Z,42.16
2023-04-16T08:29:47.487Z,42.46
2023-04-16T08:32:14.008Z,42.22
2023-04-16T08:34:41.840Z,42.29
2023-04-16T08:37:08.302Z,42.47
2023-04-16T08:39:34.872Z,42.36
2023-04-16T08:42:04.575Z,42.45
2023-04-16T08:44:33.386Z,42.15
2023-04-16T08:47:01.320Z,42.38
2023-04-16T08:49:28.220Z,42.43
2023-04-16T08:51:56.179Z,42.44
2023-04-16T08:54:38.551Z,42.63
2023-04-16T08:57:06.790Z,42.43
2023-04-16T08:59:34.100Z,42.65
2023-04-16T09:02:02.504Z,42.65
2023-04-16T09:04:29.478Z,42.68
2023-04-16T09:06:56.977Z,42.86
2023-04-16T09:09:25.825Z,42.55
2023-04-16T09:11:52.921Z,42.89
2023-04-16T09:14:20.476Z,42.89
2023-04-16T09:16:47.541Z,42.52
2023-04-16T09:19:15.914Z,42.79
2023-04-16T09:21:45.453Z,42.78
2023-04-16T09:24:12.196Z,42.80
2023-04-16T09:26:38.821Z,42.79
2023-04-16T09:29:05.312Z,42.52
2023-04-16T09:31:38.264Z,42.53
2023-04-16T09:34:06.453Z,42.80
2023-04-16T09:36:35.682Z,43.02
2023-04-16T09:39:03.641Z,42.89
2023-04-16T09:41:31.952Z,42.72
2023-04-16T09:44:00.855Z,42.69
2023-04-16T09:46:30.374Z,42.69
2023-04-16T09:48:57.219Z,42.64
2023-04-16T09:51:23.726Z,42.91
2023-04-16T09:53:53.015Z,42.90
2023-04-16T09:56:23.942Z,42.78
2023-04-16T09:58:50.460Z,43.08
2023-04-16T10:01:18.306Z,43.00
2023-04-16T10:03:50.217Z,43.19
2023-04-16T10:06:19.419Z,42.86
2023-04-16T10:08:49.670Z,42.98
2023-04-16T10:11:20.313Z,42.96
2023-04-16T10:13:53.146Z,42.83
2023-04-16T10:16:19.700Z,42.96
2023-04-16T10:18:46.906Z,43.16
2023-04-16T10:21:13.382Z,42.78
2023-04-16T10:23:40.199Z,42.87
2023-04-16T10:26:06.993Z,42.88
2023-04-16T10:28:35.197Z,42.80
2023-04-16T10:31:03.958Z,42.65
2023-04-16T10:33:32.255Z,42.81
2023-04-16T10:36:14.304Z,42.87
2023-04-16T10:38:41.959Z,42.70
2023-04-16T10:41:08.452Z,42.51
2023-04-16T10:43:41.263Z,42.58
2023-04-16T10:46:18.538Z,42.49
2023-04-16T10:51:28.278Z,42.51
2023-04-16T10:53:56.109Z,42.34
2023-04-16T10:56:23.601Z,42.40
2023-04-16T10:58:53.255Z,42.54
2023-04-16T11:01:29.889Z,42.44
2023-04-16T11:03:58.234Z,42.33
2023-04-16T11:06:26.883Z,42.36
2023-04-16T11:08:55.262Z,42.41
2023-04-16T11:11:22.740Z,42.27
2023-04-16T11:13:54.518Z,42.47
2023-04-16T11:16:21.019Z,42.39
2023-04-16T11:18:50.765Z,42.04
2023-04-16T11:21:19.328Z,42.27
2023-04-16T11:23:48.617Z,42.32
2023-04-16T11:26:24.559Z,42.12
2023-04-16T11:28:53.310Z,42.09
2023-04-16T11:31:19.845Z,42.30
2023-04-16T11:33:46.410Z,42.22
2023-04-16T11:36:12.976Z,41.94
2023-04-16T11:38:39.650Z,42.13
2023-04-16T11:41:06.395Z,42.02
2023-04-16T11:43:32.953Z,41.92
2023-04-16T11:46:07.441Z,42.23
2023-04-16T11:48:49.553Z,42.02
2023-04-16T11:51:16.534Z,42.05
2023-04-16T11:53:49.107Z,42.26
2023-04-16T11:56:15.582Z,41.91
2023-04-16T11:58:43.370Z,41.69
2023-04-16T12:01:11.561Z,41.94
2023-04-16T12:03:39.542Z,42.12
2023-04-16T12:06:07.887Z,41.90
2023-04-16T12:08:34.358Z,41.92
2023-04-16T12:11:00.941Z,41.73
2023-04-16T12:13:27.421Z,41.85
2023-04-16T12:15:56.358Z,41.87
2023-04-16T12:18:25.385Z,41.62
2023-04-16T12:20:51.910Z,41.85
2023-04-16T12:23:27.017Z,41.83
2023-04-16T12:25:53.726Z,41.64
2023-04-16T12:28:29.026Z,41.59
2023-04-16T12:30:55.554Z,41.58
2023-04-16T12:33:22.079Z,41.85
2023-04-16T12:35:49.831Z,41.61
2023-04-16T12:38:16.520Z,41.71
2023-04-16T12:40:43.317Z,41.78
2023-04-16T12:43:10.327Z,41.50
2023-04-16T12:45:38.006Z,41.52
2023-04-16T12:48:04.837Z,41.58
2023-04-16T12:50:31.420Z,41.67
2023-04-16T12:52:59.461Z,41.73
2023-04-16T12:55:26.174Z,41.48
2023-04-16T12:57:54.192Z,41.61
2023-04-16T13:00:20.817Z,41.53
2023-04-16T13:02:47.643Z,41.41
2023-04-16T13:05:14.215Z,41.47
2023-04-16T13:07:41.105Z,41.73
2023-04-16T13:10:10.097Z,41.62
2023-04-16T13:12:36.577Z,41.37
2023-04-16T13:15:03.414Z,41.55
2023-04-16T13:17:29.929Z,41.51
2023-04-16T13:19:56.395Z,41.57
2023-04-16T13:22:22.892Z,41.37
2023-04-16T13:24:49.741Z,41.27
2023-04-16T13:27:17.488Z,41.40
2023-04-16T13:29:44.043Z,41.51
2023-04-16T13:32:10.708Z,41.46
2023-04-16T13:34:37.164Z,41.20
2023-04-16T13:37:03.666Z,41.23
2023-04-16T13:39:30.136Z,41.39
2023-04-16T13:41:56.589Z,41.42
2023-04-16T13:44:24.362Z,41.33
2023-04-16T13:46:50.989Z,41.49
2023-04-16T13:49:17.474Z,41.47
2023-04-16T13:51:44.072Z,41.34
2023-04-16T13:54:10.586Z,41.24
2023-04-16T13:56:37.045Z,41.47
2023-04-16T13:59:03.521Z,41.16
2023-04-16T14:01:31.311Z,41.39
2023-04-16T14:03:57.982Z,41.20
2023-04-16T14:06:24.507Z,41.32
2023-04-16T14:08:50.940Z,41.34
2023-04-16T14:11:17.457Z,41.20
2023-04-16T14:13:43.927Z,41.40
2023-04-16T14:16:10.485Z,41.45
2023-04-16T14:18:38.395Z,41.54
2023-04-16T14:21:04.869Z,41.29
2023-04-16T14:23:31.336Z,41.17
2023-04-16T14:25:57.754Z,41.44
2023-04-16T14:28:24.173Z,41.23
2023-04-16T14:30:50.641Z,41.50
2023-04-16T14:33:17.119Z,41.42
2023-04-16T14:35:45.017Z,41.44
2023-04-16T14:38:11.626Z,41.30
2023-04-16T14:40:38.188Z,41.35
2023-04-16T14:43:04.699Z,41.12
2023-04-16T14:45:31.180Z,41.26
2023-04-16T14:47:57.665Z,41.23
2023-04-16T14:53:15.963Z,41.55
2023-04-16T14:55:42.481Z,41.33
2023-04-16T14:58:09.040Z,41.50
2023-04-16T15:00:35.601Z,41.49
2023-04-16T15:03:02.316Z,41.51
2023-04-16T15:05:29.996Z,41.32
2023-04-16T15:07:56.528Z,41.52
2023-04-16T15:10:24.298Z,41.35
2023-04-16T15:12:50.732Z,41.41
2023-04-16T15:15:17.204Z,41.62
2023-04-16T15:17:43.886Z,41.56
2023-04-16T15:20:11.112Z,41.54
2023-04-16T15:22:37.945Z,41.61
2023-04-16T15:25:05.038Z,41.61
2023-04-16T15:27:32.805Z,41.65
2023-04-16T15:29:59.291Z,41.49
2023-04-16T15:32:25.845Z,41.57
2023-04-16T15:34:52.354Z,41.95
2023-04-16T15:37:18.837Z,41.69
2023-04-16T15:39:45.417Z,41.64
2023-04-16T15:42:11.926Z,41.71
2023-04-16T15:44:39.694Z,41.65
2023-04-16T15:47:06.272Z,41.83
2023-04-16T15:49:32.756Z,41.87
2023-04-16T15:51:59.338Z,41.68
2023-04-16T15:54:25.772Z,41.59
2023-04-16T15:56:52.331Z,41.40
2023-04-16T15:59:18.806Z,41.77
2023-04-16T16:01:46.627Z,41.54
2023-04-16T16:04:13.345Z,41.67
2023-04-16T16:06:39.943Z,41.63
2023-04-16T16:09:06.390Z,41.74
2023-04-16T16:11:32.976Z,41.54
2023-04-16T16:13:59.574Z,41.77
2023-04-16T16:16:26.076Z,41.71
2023-04-16T16:18:55.073Z,41.69
2023-04-16T16:21:21.546Z,41.81
2023-04-16T16:23:48.022Z,41.72
2023-04-16T16:26:14.515Z,41.66
2023-04-16T16:31:21.395Z,41.75
2023-04-16T16:33:47.908Z,42.00
2023-04-16T16:36:15.729Z,41.97
2023-04-16T16:38:42.183Z,41.98
2023-04-16T16:41:08.804Z,42.04
2023-04-16T16:43:35.703Z,42.06
2023-04-16T16:46:02.230Z,42.12
2023-04-16T16:48:28.980Z,42.13
2023-04-16T16:50:55.473Z,41.85
2023-04-16T16:53:23.292Z,42.07
2023-04-16T16:55:49.774Z,42.05
2023-04-16T16:58:16.327Z,42.27
2023-04-16T17:00:42.948Z,42.11
2023-04-16T17:03:09.773Z,42.32
2023-04-16T17:05:36.467Z,42.27
2023-04-16T17:08:02.992Z,42.21
2023-04-16T17:10:30.771Z,42.50
2023-04-16T17:12:57.220Z,42.44
2023-04-16T17:15:24.009Z,42.29
2023-04-16T17:17:50.568Z,42.30
2023-04-16T17:20:17.070Z,42.50
2023-04-16T17:22:43.558Z,42.47
2023-04-16T17:25:10.394Z,42.41
2023-04-16T17:27:39.322Z,42.49
2023-04-16T17:30:06.931Z,42.58
2023-04-16T17:32:33.638Z,42.63
2023-04-16T17:35:00.912Z,42.56
2023-04-16T17:37:27.499Z,42.53
2023-04-16T17:39:53.960Z,42.74
2023-04-16T17:42:20.383Z,42.50
2023-04-16T17:44:48.200Z,42.96
2023-04-16T17:47:14.696Z,42.67
2023-04-16T17:49:41.179Z,42.97
2023-04-16T17:52:07.685Z,42.83
2023-04-16T17:54:34.169Z,42.79
2023-04-16T17:57:00.664Z,42.87
2023-04-16T17:59:27.225Z,42.90
2023-04-16T18:01:55.190Z,43.06
2023-04-16T18:04:21.945Z,42.78
2023-04-16T18:06:48.535Z,42.84
2023-04-16T18:09:15.007Z,42.97
2023-04-16T18:11:41.477Z,43.01
2023-04-16T18:14:07.962Z,43.12
2023-04-16T18:16:34.399Z,43.06
2023-04-16T18:19:02.225Z,42.97
2023-04-16T18:21:28.684Z,43.06
2023-04-16T18:23:55.171Z,43.06
2023-04-16T18:26:22.895Z,43.26
2023-04-16T18:28:49.691Z,43.04
2023-04-16T18:31:18.406Z,42.99
2023-04-16T18:33:56.459Z,43.29
2023-04-16T18:36:25.812Z,43.07
2023-04-16T18:39:00.145Z,43.13
2023-04-16T18:41:27.946Z,43.32
2023-04-16T18:43:54.398Z,42.73
2023-04-16T18:46:20.931Z,43.20
2023-04-16T18:48:47.477Z,43.27
2023-04-16T18:51:16.077Z,43.33
2023-04-16T18:53:44.564Z,43.30
2023-04-16T18:56:11.454Z,43.25
2023-04-16T18:58:38.050Z,43.32
2023-04-16T19:01:04.752Z,43.21
2023-04-16T19:03:31.560Z,43.36
2023-04-16T19:05:58.084Z,43.32
2023-04-16T19:08:24.936Z,43.42
2023-04-16T19:10:52.686Z,43.25
2023-04-16T19:13:19.166Z,43.49
2023-04-16T19:15:45.828Z,43.49
2023-04-16T19:18:12.350Z,43.35
2023-04-16T19:20:38.901Z,43.38
2023-04-16T19:23:05.679Z,43.64
2023-04-16T19:25:32.294Z,43.45
2023-04-16T19:28:00.136Z,43.48
2023-04-16T19:30:26.627Z,43.47
2023-04-16T19:32:55.178Z,43.48
2023-04-16T19:35:22.254Z,43.60
2023-04-16T19:37:48.838Z,43.32
2023-04-16T19:40:15.397Z,43.48
2023-04-16T19:42:41.849Z,43.70
2023-04-16T19:45:09.897Z,43.51
2023-04-16T19:47:36.422Z,43.60
2023-04-16T19:50:02.959Z,43.52
2023-04-16T19:52:29.421Z,43.86
2023-04-16T19:54:55.911Z,43.53
2023-04-16T19:57:22.359Z,43.69
2023-04-16T19:59:48.824Z,43.83
2023-04-16T20:02:16.635Z,43.60
2023-04-16T20:04:43.100Z,43.62
2023-04-16T20:07:09.650Z,43.84
2023-04-16T20:09:36.104Z,43.67
2023-04-16T20:12:02.729Z,43.76
2023-04-16T20:14:29.206Z,43.78
2023-04-16T20:16:55.672Z,43.71
2023-04-16T20:19:23.421Z,43.79
2023-04-16T20:21:49.893Z,43.90
2023-04-16T20:24:16.403Z,43.86
2023-04-16T20:26:42.853Z,43.69
2023-04-16T20:29:09.479Z,43.82
2023-04-16T20:31:36.101Z,43.71
2023-04-16T20:34:02.576Z,43.65
2023-04-16T20:36:30.458Z,43.88
2023-04-16T20:38:57.010Z,43.79
2023-04-16T20:41:23.414Z,43.91
2023-04-16T20:43:49.977Z,43.73
2023-04-16T20:46:17.180Z,43.79
2023-04-16T20:48:44.394Z,43.90
2023-04-16T20:51:10.914Z,43.75
2023-04-16T20:53:38.659Z,44.10
2023-04-16T20:56:05.667Z,44.04
2023-04-16T20:58:32.287Z,44.02
2023-04-16T21:00:58.750Z,43.81
2023-04-16T21:03:25.377Z,44.01
2023-04-16T21:05:53.407Z,43.90
2023-04-16T21:08:20.784Z,44.22
2023-04-16T21:10:48.906Z,43.94
2023-04-16T21:13:15.408Z,44.05
2023-04-16T21:15:44.686Z,44.03
2023-04-16T21:18:11.546Z,43.93
2023-04-16T21:20:39.316Z,43.91
2023-04-16T21:23:06.048Z,43.87
2023-04-16T21:25:32.547Z,44.34
2023-04-16T21:28:00.336Z,44.04
2023-04-16T21:30:26.799Z,44.07
2023-04-16T21:32:53.322Z,44.05
2023-04-16T21:35:19.944Z,44.36
2023-04-16T21:37:46.485Z,44.10
2023-04-16T21:40:13.155Z,44.24
2023-04-16T21:42:39.705Z,44.26
2023-04-16T21:45:08.344Z,44.16
2023-04-16T21:47:35.063Z,43.98
2023-04-16T21:50:01.647Z,44.19
2023-04-16T21:52:28.136Z,44.03
2023-04-16T21:54:54.555Z,44.19
2023-04-16T21:57:21.044Z,44.17
2023-04-16T21:59:47.501Z,44.10
2023-04-16T22:02:15.407Z,44.16
2023-04-16T22:04:41.934Z,44.48
2023-04-16T22:07:09.367Z,44.28
2023-04-16T22:09:36.014Z,44.16
2023-04-16T22:12:02.547Z,44.25
2023-04-16T22:14:29.087Z,44.08
2023-04-16T22:16:55.723Z,44.06
2023-04-16T22:19:23.739Z,44.17
2023-04-16T22:21:50.223Z,44.15
2023-04-16T22:24:16.680Z,44.31
2023-04-16T22:26:43.145Z,44.09
2023-04-16T22:29:09.724Z,44.17
2023-04-16T22:31:36.323Z,44.15
2023-04-16T22:34:03.624Z,44.22
2023-04-16T22:36:31.526Z,44.13
2023-04-16T22:38:58.021Z,44.15
2023-04-16T22:41:24.574Z,44.08
2023-04-16T22:43:52.476Z,44.00
2023-04-16T22:46:19.201Z,44.05
2023-04-16T22:48:45.755Z,44.19
2023-04-16T22:51:12.604Z,44.03
2023-04-16T22:53:40.407Z,44.20
2023-04-16T22:56:07.212Z,43.92
2023-04-16T22:58:33.677Z,44.01
2023-04-16T23:01:00.168Z,43.98
2023-04-16T23:03:26.997Z,44.09
2023-04-16T23:05:53.496Z,43.72
2023-04-16T23:08:19.938Z,43.91
2023-04-16T23:10:47.852Z,43.87
2023-04-16T23:13:14.311Z,44.01
2023-04-16T23:15:40.823Z,43.84
2023-04-16T23:18:07.407Z,44.02
2023-04-16T23:20:33.940Z,43.78
2023-04-16T23:23:00.501Z,43.96
2023-04-16T23:25:27.040Z,43.91
2023-04-16T23:27:54.779Z,43.95
2023-04-16T23:30:21.406Z,43.74
2023-04-16T23:32:48.135Z,43.80
2023-04-16T23:35:14.725Z,43.82
2023-04-16T23:37:41.183Z,43.69
2023-04-16T23:40:08.605Z,43.88
2023-04-16T23:42:35.170Z,43.74
2023-04-16T23:45:03.011Z,43.79
2023-04-16T23:47:29.479Z,43.59
2023-04-16T23:49:56.004Z,43.56
2023-04-16T23:52:22.467Z,43.67
2023-04-16T23:54:49.082Z,43.75
2023-04-16T23:57:15.538Z,43.35
2023-04-16T23:59:42.066Z,43.75
